Time;durP1;ratioP1;P1;durP2;ratioP2;P2;SDS_P1;SDS_P2;PMS_P1;PMS_P2;Temp;Humidity;BMP_temperature;BMP_pressure;BME280_temperature;BME280_humidity;BME280_pressure;Samples;Min_cycle;Max_cycle;Signal;HPM_P1;HPM_P2
2021/07/03 00:00:29;;;;;;;7.33;5.40;;;;;;;20.68;60.57;101603.25;5034758;28;20473;-59
2021/07/03 00:02:55;;;;;;;7.95;5.07;;;;;;;20.67;60.33;101595.44;5035862;28;20275;-59
2021/07/03 00:05:20;;;;;;;8.35;5.75;;;;;;;20.67;60.33;101601.56;5035553;28;20091;-58
2021/07/03 00:07:45;;;;;;;8.07;5.05;;;;;;;20.64;60.50;101600.00;5034820;28;20024;-59
2021/07/03 00:10:11;;;;;;;8.20;5.63;;;;;;;20.66;60.24;101599.88;5035644;28;20033;-58
2021/07/03 00:12:36;;;;;;;7.43;5.70;;;;;;;20.64;60.34;101602.66;5035369;28;20079;-59
2021/07/03 00:15:06;;;;;;;8.65;6.05;;;;;;;20.67;60.56;101603.38;5034773;28;20330;-59
2021/07/03 00:17:34;;;;;;;8.23;5.47;;;;;;;20.64;60.29;101601.81;5035110;28;20028;-59
2021/07/03 00:19:59;;;;;;;7.53;5.35;;;;;;;20.65;60.34;101601.69;5035412;28;20029;-58
2021/07/03 00:22:25;;;;;;;8.32;5.72;;;;;;;20.64;60.24;101604.47;5034187;28;20064;-59
2021/07/03 00:24:50;;;;;;;8.30;5.72;;;;;;;20.64;60.32;101593.88;5035456;28;20065;-58
2021/07/03 00:27:15;;;;;;;7.45;5.85;;;;;;;20.63;60.19;101598.31;5035182;28;20021;-59
2021/07/03 00:29:41;;;;;;;8.68;5.68;;;;;;;20.62;60.28;101596.59;5034609;28;20063;-58
2021/07/03 00:32:06;;;;;;;8.50;5.83;;;;;;;20.63;60.26;101597.44;5034968;28;20129;-59
2021/07/03 00:34:31;;;;;;;7.93;5.80;;;;;;;20.62;60.25;101588.66;5034960;28;20290;-59
2021/07/03 00:36:57;;;;;;;8.05;5.50;;;;;;;20.62;60.25;101596.59;5034353;28;20393;-59
2021/07/03 00:39:22;;;;;;;8.93;6.28;;;;;;;20.61;60.23;101592.25;5034963;28;20025;-59
2021/07/03 00:41:47;;;;;;;8.43;6.10;;;;;;;20.60;60.30;101587.09;5035255;28;20025;-59
2021/07/03 00:44:24;;;;;;;7.85;5.75;;;;;;;20.60;60.15;101589.75;5034917;28;20029;-58
2021/07/03 00:46:49;;;;;;;7.53;5.43;;;;;;;20.61;60.08;101586.13;5035684;28;20025;-59
2021/07/03 00:49:15;;;;;;;9.00;6.20;;;;;;;20.58;60.26;101586.38;5034565;28;20025;-58
2021/07/03 00:51:41;;;;;;;8.43;6.28;;;;;;;20.59;59.98;101593.38;5035491;28;20378;-59
2021/07/03 00:54:08;;;;;;;7.50;5.88;;;;;;;20.59;60.04;101585.44;5034091;28;20032;-59
2021/07/03 00:56:33;;;;;;;8.70;5.78;;;;;;;20.58;59.95;101584.56;5033604;28;20495;-59
2021/07/03 00:58:59;;;;;;;9.07;5.85;;;;;;;20.57;59.91;101587.34;5034542;28;20021;-58
2021/07/03 01:01:24;;;;;;;8.27;6.03;;;;;;;20.57;59.76;101588.19;5034144;28;20109;-58
2021/07/03 01:03:49;;;;;;;7.97;5.67;;;;;;;20.57;59.78;101596.13;5033652;28;20318;-59
2021/07/03 01:06:15;;;;;;;8.38;6.00;;;;;;;20.55;59.71;101583.97;5034414;28;20290;-60
2021/07/03 01:08:43;;;;;;;8.25;5.97;;;;;;;20.57;59.92;101589.97;5034572;28;20104;-59
2021/07/03 01:11:08;;;;;;;8.13;5.57;;;;;;;20.56;59.76;101593.63;5033716;28;20086;-59
2021/07/03 01:13:34;;;;;;;8.35;6.18;;;;;;;20.56;59.65;101593.63;5033925;28;20112;-59
2021/07/03 01:15:59;;;;;;;8.18;5.82;;;;;;;20.55;59.64;101592.75;5034365;28;20025;-58
2021/07/03 01:18:27;;;;;;;8.20;6.32;;;;;;;20.55;59.57;101591.91;5033226;28;20059;-59
2021/07/03 01:20:53;;;;;;;8.35;5.55;;;;;;;20.54;60.08;101591.09;5034468;28;20032;-58
2021/07/03 01:23:23;;;;;;;7.65;5.70;;;;;;;20.52;59.74;101582.44;5034043;28;20033;-58
2021/07/03 01:25:57;;;;;;;8.43;5.95;;;;;;;20.53;59.58;101591.22;5033398;28;20029;-59
2021/07/03 01:28:22;;;;;;;8.40;6.47;;;;;;;20.53;59.59;101589.41;5034070;28;20029;-59
2021/07/03 01:30:48;;;;;;;8.40;6.05;;;;;;;20.52;59.71;101587.72;5034014;28;20091;-57
2021/07/03 01:33:13;;;;;;;8.65;6.15;;;;;;;20.53;59.34;101588.56;5032963;28;20053;-59
2021/07/03 01:35:41;;;;;;;7.88;6.18;;;;;;;20.50;59.83;101587.00;5033896;28;20022;-58
2021/07/03 01:38:06;;;;;;;8.00;6.03;;;;;;;20.50;59.55;101584.34;5033868;28;20473;-58
2021/07/03 01:40:31;;;;;;;9.02;6.50;;;;;;;20.51;59.41;101587.84;5032938;28;20032;-58
2021/07/03 01:42:57;;;;;;;8.35;6.22;;;;;;;20.51;59.41;101587.84;5033976;28;20083;-58
2021/07/03 01:45:25;;;;;;;9.67;6.23;;;;;;;20.50;59.59;101588.81;5032722;28;20025;-60
2021/07/03 01:47:50;;;;;;;9.70;6.60;;;;;;;20.50;59.38;101588.81;5033986;28;20687;-58
2021/07/03 01:50:16;;;;;;;9.02;6.20;;;;;;;20.50;59.27;101588.81;5033524;28;20052;-59
2021/07/03 01:52:41;;;;;;;7.57;5.72;;;;;;;20.46;59.38;101583.75;5033062;28;20029;-58
2021/07/03 01:55:09;;;;;;;8.98;6.15;;;;;;;20.48;59.43;101592.41;5033441;28;20072;-58
2021/07/03 01:57:35;;;;;;;9.20;6.50;;;;;;;20.48;59.42;101587.09;5033304;28;20044;-59
2021/07/03 02:00:03;;;;;;;9.20;6.85;;;;;;;20.48;59.49;101588.94;5032776;28;20116;-59
2021/07/03 02:02:34;;;;;;;8.27;6.30;;;;;;;20.46;59.43;101585.56;5033323;28;20018;-59
2021/07/03 02:04:59;;;;;;;9.15;6.45;;;;;;;20.47;59.52;101587.22;5033226;28;20021;-58
2021/07/03 02:07:24;;;;;;;10.45;6.60;;;;;;;20.47;59.55;101580.16;5031993;28;20492;-58
2021/07/03 02:09:50;;;;;;;8.60;5.97;;;;;;;20.47;59.34;101574.00;5033477;28;20461;-59
2021/07/03 02:12:15;;;;;;;9.70;6.55;;;;;;;20.45;59.39;101574.13;5033018;28;20595;-58
2021/07/03 02:14:40;;;;;;;8.03;6.10;;;;;;;20.46;59.39;101574.97;5032498;28;20069;-59
2021/07/03 02:17:08;;;;;;;8.43;6.30;;;;;;;20.44;59.39;101564.50;5033426;28;20275;-58
2021/07/03 02:19:33;;;;;;;8.95;6.30;;;;;;;20.44;59.42;101561.00;5033008;28;20060;-59
2021/07/03 02:21:59;;;;;;;9.40;6.55;;;;;;;20.44;59.49;101561.88;5032589;28;20057;-59
2021/07/03 02:24:24;;;;;;;9.23;6.40;;;;;;;20.45;59.49;101557.41;5032834;28;20366;-58
2021/07/03 02:26:49;;;;;;;8.95;6.90;;;;;;;20.44;59.12;101561.00;5032957;28;20513;-59
2021/07/03 02:29:14;;;;;;;10.25;7.07;;;;;;;20.44;59.39;101551.28;5031840;28;20075;-59
2021/07/03 02:31:40;;;;;;;9.32;6.65;;;;;;;20.44;59.19;101553.06;5032993;28;20128;-57
2021/07/03 02:34:05;;;;;;;9.90;7.23;;;;;;;20.43;59.27;101549.56;5032797;28;20084;-58
2021/07/03 02:36:30;;;;;;;9.07;7.10;;;;;;;20.43;59.29;101549.56;5031959;28;20286;-59
2021/07/03 02:38:56;;;;;;;9.98;7.10;;;;;;;20.43;59.21;101540.81;5032908;28;20370;-59
2021/07/03 02:41:21;;;;;;;10.02;7.50;;;;;;;20.41;59.53;101540.06;5032538;28;20029;-58
2021/07/03 02:43:46;;;;;;;10.82;7.35;;;;;;;20.42;59.33;101547.06;5031941;28;20103;-59
2021/07/03 02:46:12;;;;;;;9.30;7.25;;;;;;;20.41;59.53;101535.63;5032664;28;20021;-59
2021/07/03 02:48:37;;;;;;;8.93;6.80;;;;;;;20.41;59.43;101535.63;5031714;28;20021;-59
2021/07/03 02:51:12;;;;;;;10.05;6.95;;;;;;;20.41;59.33;101545.34;5032731;28;20473;-59
2021/07/03 02:53:37;;;;;;;9.65;6.93;;;;;;;20.41;59.12;101534.75;5032045;28;20539;-59
2021/07/03 02:56:03;;;;;;;9.15;6.97;;;;;;;20.40;59.42;101541.88;5031653;28;20120;-57
2021/07/03 02:58:28;;;;;;;9.93;6.97;;;;;;;20.40;59.00;101531.28;5031932;28;20503;-58
2021/07/03 03:00:53;;;;;;;9.40;7.05;;;;;;;20.40;59.25;101531.28;5032580;28;20028;-58
2021/07/03 03:03:22;;;;;;;10.40;7.65;;;;;;;20.38;59.41;101525.28;5031450;28;20408;-59
2021/07/03 03:05:47;;;;;;;9.70;7.35;;;;;;;20.39;59.43;101512.88;5032362;28;20021;-60
2021/07/03 03:08:12;;;;;;;8.95;7.13;;;;;;;20.40;59.35;101517.22;5032332;28;20032;-59
2021/07/03 03:10:38;;;;;;;9.90;7.68;;;;;;;20.39;59.35;101515.53;5031253;28;20129;-58
2021/07/03 03:13:03;;;;;;;10.88;7.90;;;;;;;20.37;59.24;101510.34;5032075;28;20109;-58
2021/07/03 03:15:28;;;;;;;10.27;7.63;;;;;;;20.38;59.31;101511.22;5031837;28;20171;-58
2021/07/03 03:17:54;;;;;;;11.02;7.97;;;;;;;20.37;59.31;101513.00;5031165;28;20029;-57
2021/07/03 03:20:19;;;;;;;9.77;7.25;;;;;;;20.35;59.33;101507.00;5031993;28;20025;-58
2021/07/03 03:22:45;;;;;;;9.80;7.25;;;;;;;20.37;59.16;101520.94;5032258;28;20513;-58
2021/07/03 03:25:13;;;;;;;10.98;7.72;;;;;;;20.35;59.31;101519.41;5031492;28;20029;-59
2021/07/03 03:27:39;;;;;;;11.05;8.48;;;;;;;20.35;59.18;101511.47;5031780;28;20029;-59
2021/07/03 03:30:06;;;;;;;10.48;7.95;;;;;;;20.38;59.33;101519.16;5032333;28;20399;-58
2021/07/03 03:32:32;;;;;;;10.25;7.50;;;;;;;20.38;59.30;101511.22;5030871;28;20065;-59
2021/07/03 03:34:57;;;;;;;9.90;8.05;;;;;;;20.36;59.16;101514.00;5032022;28;20076;-58
2021/07/03 03:37:22;;;;;;;9.98;7.45;;;;;;;20.36;59.32;101514.00;5031773;28;20029;-58
2021/07/03 03:39:47;;;;;;;10.07;7.78;;;;;;;20.34;59.29;101507.94;5031291;28;20132;-58
2021/07/03 03:42:13;;;;;;;9.25;7.13;;;;;;;20.35;59.12;101511.47;5031797;28;20032;-59
2021/07/03 03:44:38;;;;;;;9.60;7.30;;;;;;;20.36;58.96;101506.03;5031832;28;20465;-58
2021/07/03 03:47:03;;;;;;;11.07;7.95;;;;;;;20.35;59.15;101507.00;5031392;28;20277;-59
2021/07/03 03:49:29;;;;;;;10.52;7.82;;;;;;;20.35;59.06;101509.66;5031714;28;20466;-58
2021/07/03 03:51:54;;;;;;;11.52;8.85;;;;;;;20.35;59.31;101503.53;5031063;28;20017;-59
2021/07/03 03:54:21;;;;;;;9.20;7.57;;;;;;;20.34;59.18;101510.59;5031532;28;20040;-59
2021/07/03 03:56:47;;;;;;;9.75;7.63;;;;;;;20.33;59.12;101498.34;5031712;28;20032;-57
2021/07/03 03:59:13;;;;;;;10.20;7.85;;;;;;;20.35;58.84;101500.88;5031328;28;20377;-58
2021/07/03 04:01:38;;;;;;;10.07;7.53;;;;;;;20.36;59.35;101505.19;5031651;28;20064;-58
2021/07/03 04:04:06;;;;;;;11.45;8.20;;;;;;;20.35;59.33;101503.53;5031855;28;20026;-57
2021/07/03 04:06:32;;;;;;;11.52;8.27;;;;;;;20.35;59.26;101506.16;5030621;28;20039;-57
2021/07/03 04:08:57;;;;;;;9.43;7.40;;;;;;;20.34;59.33;101505.31;5031751;28;20029;-57
2021/07/03 04:11:23;;;;;;;11.38;8.15;;;;;;;20.34;59.18;101509.75;5031237;28;20017;-57
2021/07/03 04:13:49;;;;;;;10.73;7.85;;;;;;;20.34;59.23;101510.59;5030822;28;20079;-57
2021/07/03 04:16:14;;;;;;;10.85;8.23;;;;;;;20.33;59.01;101506.28;5031705;28;20032;-58
2021/07/03 04:18:39;;;;;;;10.38;7.68;;;;;;;20.35;59.47;101516.75;5031834;28;20022;-58
2021/07/03 04:21:05;;;;;;;9.48;7.30;;;;;;;20.34;59.39;101515.91;5030932;28;20112;-58
2021/07/03 04:23:30;;;;;;;9.57;7.13;;;;;;;20.35;59.00;101516.75;5031037;28;20402;-57
2021/07/03 04:25:55;;;;;;;10.52;7.80;;;;;;;20.35;59.11;101516.75;5031512;28;20032;-58
2021/07/03 04:28:20;;;;;;;11.63;7.93;;;;;;;20.34;59.20;101520.34;5030411;28;20051;-58
2021/07/03 04:30:46;;;;;;;9.30;7.30;;;;;;;20.34;59.33;101529.13;5034978;28;20278;-57
2021/07/03 04:33:14;;;;;;;8.25;6.97;;;;;;;20.34;58.96;101534.41;5034722;28;20286;-58
2021/07/03 04:35:39;;;;;;;11.18;8.15;;;;;;;20.34;59.04;101528.31;5034232;28;20033;-58
2021/07/03 04:38:07;;;;;;;11.10;7.90;;;;;;;20.34;59.30;101530.94;5035014;28;20029;-58
2021/07/03 04:40:32;;;;;;;10.77;7.65;;;;;;;20.33;59.11;101538.06;5034630;28;20056;-59
2021/07/03 04:42:58;;;;;;;10.27;7.75;;;;;;;20.34;59.09;101530.94;5034293;28;20485;-58
2021/07/03 04:45:26;;;;;;;9.90;7.57;;;;;;;20.33;59.18;101524.81;5034586;28;20107;-58
2021/07/03 04:47:52;;;;;;;9.50;7.57;;;;;;;20.34;59.10;101523.00;5034748;28;20045;-57
2021/07/03 04:50:18;;;;;;;10.00;7.07;;;;;;;20.34;59.17;101523.00;5033723;28;20394;-57
2021/07/03 04:52:46;;;;;;;9.13;7.07;;;;;;;20.34;59.19;101512.41;5034743;28;20454;-57
2021/07/03 04:55:11;;;;;;;11.48;7.72;;;;;;;20.33;59.35;101510.72;5033804;28;20048;-58
2021/07/03 04:57:37;;;;;;;11.10;7.43;;;;;;;20.33;59.12;101516.88;5034287;28;20437;-58
2021/07/03 05:00:04;;;;;;;9.75;7.15;;;;;;;20.34;59.18;101515.91;5034819;28;20091;-57
2021/07/03 05:02:29;;;;;;;9.85;7.45;;;;;;;20.32;59.41;101519.66;5033451;28;20032;-59
2021/07/03 05:04:55;;;;;;;10.20;7.60;;;;;;;20.31;59.43;101508.19;5034538;28;20033;-57
2021/07/03 05:07:20;;;;;;;9.55;7.13;;;;;;;20.34;59.24;101512.41;5034177;28;20742;-58
2021/07/03 05:09:45;;;;;;;10.05;7.70;;;;;;;20.33;59.19;101508.06;5033719;28;20021;-58
2021/07/03 05:12:11;;;;;;;9.38;7.22;;;;;;;20.33;59.14;101513.38;5034348;28;20543;-58
2021/07/03 05:14:36;;;;;;;10.43;7.10;;;;;;;20.33;59.41;101510.72;5034118;28;20112;-58
2021/07/03 05:17:04;;;;;;;10.18;7.00;;;;;;;20.33;58.97;101503.66;5033702;28;20761;-59
2021/07/03 05:19:31;;;;;;;9.60;7.22;;;;;;;20.34;59.21;101505.31;5034032;28;20370;-58
2021/07/03 05:21:59;;;;;;;9.55;7.38;;;;;;;20.32;59.00;101498.47;5034198;28;20040;-59
2021/07/03 05:24:24;;;;;;;9.98;7.22;;;;;;;20.33;59.40;101503.66;5033048;28;20112;-58
2021/07/03 05:26:50;;;;;;;10.02;7.07;;;;;;;20.34;59.11;101496.53;5034198;28;20059;-59
2021/07/03 05:29:15;;;;;;;11.45;7.75;;;;;;;20.31;59.49;101497.59;5033878;28;20048;-58
2021/07/03 05:31:40;;;;;;;9.98;7.38;;;;;;;20.33;59.18;101495.69;5031794;28;20433;-57
2021/07/03 05:34:06;;;;;;;7.90;6.38;;;;;;;20.34;59.39;101489.41;5033672;28;20076;-59
2021/07/03 05:36:31;;;;;;;10.27;6.97;;;;;;;20.35;59.45;101498.22;5033744;28;20079;-58
2021/07/03 05:38:57;;;;;;;9.05;7.13;;;;;;;20.34;59.51;101494.72;5033239;28;20776;-59
2021/07/03 05:41:22;;;;;;;10.15;7.20;;;;;;;20.35;59.44;101493.75;5033531;28;20128;-58
2021/07/03 05:43:48;;;;;;;9.10;6.90;;;;;;;20.36;59.53;101505.19;5034069;28;20033;-59
2021/07/03 05:46:14;;;;;;;10.20;7.35;;;;;;;20.34;59.27;101492.06;5032943;28;20105;-58
2021/07/03 05:48:41;;;;;;;9.23;6.97;;;;;;;20.34;59.24;101500.00;5033701;28;20100;-59
2021/07/03 05:51:10;;;;;;;9.10;6.70;;;;;;;20.36;59.12;101499.88;5033568;28;20064;-59
2021/07/03 05:53:35;;;;;;;9.98;7.00;;;;;;;20.36;59.27;101495.47;5034681;28;20029;-59
2021/07/03 05:56:01;;;;;;;9.20;6.93;;;;;;;20.36;59.39;101494.59;5039270;28;20029;-58
2021/07/03 05:58:26;;;;;;;10.10;7.50;;;;;;;20.36;59.54;101491.94;5037241;28;20124;-58
2021/07/03 06:00:52;;;;;;;10.02;6.82;;;;;;;20.35;59.24;101488.47;5036328;28;20333;-57
2021/07/03 06:03:17;;;;;;;8.63;6.90;;;;;;;20.36;59.49;101484.00;5037231;28;20033;-58
2021/07/03 06:05:42;;;;;;;9.57;7.30;;;;;;;20.36;59.62;101487.50;5036915;28;20027;-58
2021/07/03 06:08:08;;;;;;;10.43;6.63;;;;;;;20.36;59.50;101484.88;5038021;28;20057;-58
2021/07/03 06:10:36;;;;;;;8.23;6.53;;;;;;;20.37;59.49;101493.63;5038718;28;20529;-57
2021/07/03 06:13:02;;;;;;;8.43;6.50;;;;;;;20.37;59.23;101489.19;5036653;28;20127;-58
2021/07/03 06:15:27;;;;;;;7.93;6.70;;;;;;;20.38;59.45;101492.69;5033822;28;20053;-59
2021/07/03 06:17:53;;;;;;;8.90;6.40;;;;;;;20.38;59.42;101479.44;5033810;28;20089;-59
2021/07/03 06:20:18;;;;;;;9.52;6.68;;;;;;;20.37;59.43;101486.53;5032115;28;20018;-59
2021/07/03 06:22:44;;;;;;;8.88;6.65;;;;;;;20.39;59.33;101481.13;5035391;28;20056;-59
2021/07/03 06:25:10;;;;;;;8.40;6.50;;;;;;;20.39;59.56;101481.13;5036854;28;20032;-58
2021/07/03 06:27:39;;;;;;;7.70;6.30;;;;;;;20.39;59.60;101487.25;5033986;28;20131;-58
2021/07/03 06:30:06;;;;;;;8.93;6.60;;;;;;;20.40;59.56;101482.81;5033703;28;20025;-58
2021/07/03 06:32:31;;;;;;;7.82;6.20;;;;;;;20.39;59.41;101481.13;5033054;28;20045;-59
2021/07/03 06:34:59;;;;;;;10.25;6.60;;;;;;;20.39;59.55;101481.13;5032253;28;20052;-60
2021/07/03 06:37:25;;;;;;;8.18;6.57;;;;;;;20.41;59.43;101489.75;5033145;28;20033;-58
2021/07/03 06:39:50;;;;;;;9.25;6.40;;;;;;;20.40;59.71;101483.63;5032968;28;20446;-59
2021/07/03 06:42:19;;;;;;;7.97;6.10;;;;;;;20.39;59.49;101487.25;5032206;28;20029;-59
2021/07/03 06:44:48;;;;;;;8.55;6.38;;;;;;;20.41;59.49;101485.34;5033967;28;20029;-60
2021/07/03 06:47:14;;;;;;;9.05;6.18;;;;;;;20.40;59.36;101488.94;5032941;28;20417;-59
2021/07/03 06:49:41;;;;;;;7.57;6.18;;;;;;;20.42;59.56;101488.81;5032020;28;20025;-59
2021/07/03 06:52:07;;;;;;;9.85;6.32;;;;;;;20.40;59.28;101483.63;5032044;28;20323;-59
2021/07/03 06:54:32;;;;;;;7.75;5.85;;;;;;;20.42;59.53;101476.41;5032460;28;20454;-59
2021/07/03 06:56:58;;;;;;;8.07;6.00;;;;;;;20.41;59.41;101481.81;5031963;28;20086;-59
2021/07/03 06:59:27;;;;;;;7.93;6.25;;;;;;;20.43;59.40;101486.03;5032614;28;20017;-60
2021/07/03 07:01:53;;;;;;;8.40;5.97;;;;;;;20.43;59.59;101483.38;5032201;28;20056;-60
2021/07/03 07:04:20;;;;;;;8.77;6.28;;;;;;;20.44;59.57;101484.22;5032319;28;20051;-58
2021/07/03 07:06:48;;;;;;;7.07;5.60;;;;;;;20.46;59.63;101482.31;5033376;28;20095;-59
2021/07/03 07:09:13;;;;;;;8.07;5.85;;;;;;;20.47;59.21;101479.53;5031873;28;20109;-57
2021/07/03 07:11:38;;;;;;;7.30;5.57;;;;;;;20.49;59.70;101479.41;5032272;28;20053;-58
2021/07/03 07:14:04;;;;;;;8.68;6.07;;;;;;;20.51;59.41;101482.78;5032305;28;20290;-57
2021/07/03 07:16:29;;;;;;;9.07;5.95;;;;;;;20.53;59.68;101488.78;5031449;28;20466;-58
2021/07/03 07:18:54;;;;;;;7.93;5.88;;;;;;;20.56;59.84;101493.00;5032184;28;20021;-60
2021/07/03 07:21:20;;;;;;;7.30;5.53;;;;;;;20.57;60.08;101484.94;5032142;28;20029;-58
2021/07/03 07:23:45;;;;;;;8.00;5.63;;;;;;;20.60;60.10;101491.75;5031524;28;20277;-57
2021/07/03 07:26:10;;;;;;;8.25;5.93;;;;;;;20.62;59.99;101484.56;5032206;28;20072;-58
2021/07/03 07:28:36;;;;;;;8.02;5.47;;;;;;;20.64;60.14;101486.13;5031941;28;20025;-57
2021/07/03 07:31:01;;;;;;;9.85;5.88;;;;;;;20.67;60.14;101477.09;5031566;28;20477;-58
2021/07/03 07:33:26;;;;;;;8.35;5.90;;;;;;;20.69;60.11;101476.97;5031774;28;20128;-59
2021/07/03 07:35:52;;;;;;;6.80;5.13;;;;;;;20.70;60.09;101476.00;5032335;28;20032;-59
2021/07/03 07:38:17;;;;;;;7.45;5.53;;;;;;;20.72;60.04;101482.00;5031246;28;20329;-60
2021/07/03 07:40:42;;;;;;;8.40;5.13;;;;;;;20.74;60.19;101475.59;5032329;28;20018;-59
2021/07/03 07:43:08;;;;;;;7.00;5.15;;;;;;;20.75;60.21;101477.28;5032197;28;20021;-60
2021/07/03 07:45:33;;;;;;;8.30;5.72;;;;;;;20.77;60.29;101470.06;5030988;28;20524;-59
2021/07/03 07:47:58;;;;;;;9.07;6.03;;;;;;;20.78;60.17;101473.56;5032024;28;20106;-59
2021/07/03 07:50:24;;;;;;;7.20;5.38;;;;;;;20.77;60.28;101472.72;5031631;28;20461;-58
2021/07/03 07:52:49;;;;;;;7.65;5.05;;;;;;;20.80;60.23;101466.31;5031298;28;20108;-59
2021/07/03 07:55:14;;;;;;;6.70;5.40;;;;;;;20.81;60.17;101473.31;5031845;28;20037;-60
2021/07/03 07:57:39;;;;;;;6.75;5.28;;;;;;;20.82;60.25;101470.53;5031930;28;20571;-60
2021/07/03 08:00:06;;;;;;;7.60;5.32;;;;;;;20.83;60.81;101466.91;5031390;28;20025;-58
2021/07/03 08:02:32;;;;;;;9.13;6.10;;;;;;;20.84;60.56;101473.88;5031520;28;20036;-57
2021/07/03 08:05:00;;;;;;;7.43;5.07;;;;;;;20.86;60.69;101467.63;5035826;28;20029;-58
2021/07/03 08:07:25;;;;;;;7.07;5.32;;;;;;;20.88;60.67;101460.41;5035303;28;20553;-59
2021/07/03 08:09:50;;;;;;;7.32;4.97;;;;;;;20.90;60.49;101461.09;5035869;28;20064;-59
2021/07/03 08:12:16;;;;;;;9.07;5.43;;;;;;;20.92;60.51;101464.44;5034791;28;20061;-59
2021/07/03 08:14:41;;;;;;;7.32;5.50;;;;;;;20.92;60.72;101460.00;5035769;28;20290;-59
2021/07/03 08:17:07;;;;;;;6.65;4.80;;;;;;;20.93;60.45;101451.06;5035721;28;20033;-60
2021/07/03 08:19:32;;;;;;;8.18;5.18;;;;;;;20.95;60.58;101458.91;5034962;28;20355;-59
2021/07/03 08:22:01;;;;;;;8.38;4.78;;;;;;;20.95;60.62;101459.75;5035803;28;20021;-59
2021/07/03 08:24:26;;;;;;;10.82;5.15;;;;;;;20.94;60.58;101444.81;5035628;28;20419;-59
2021/07/03 08:26:52;;;;;;;7.30;5.38;;;;;;;20.97;60.35;101444.56;5034863;28;20422;-59
2021/07/03 08:29:17;;;;;;;8.70;5.35;;;;;;;20.96;60.63;101442.03;5035115;28;20018;-58
2021/07/03 08:31:55;;;;;;;6.68;4.95;;;;;;;20.97;60.56;101447.22;5035130;28;20049;-60
2021/07/03 08:34:26;;;;;;;8.60;5.40;;;;;;;20.99;60.65;101444.44;5035147;28;20033;-60
2021/07/03 08:36:51;;;;;;;7.85;5.20;;;;;;;21.01;60.99;101446.00;5035575;28;20036;-60
2021/07/03 08:39:17;;;;;;;6.73;4.83;;;;;;;20.99;60.87;101434.66;5035133;28;20038;-60
2021/07/03 08:41:43;;;;;;;7.50;5.13;;;;;;;21.02;60.79;101442.34;5034446;28;20282;-59
2021/07/03 08:44:12;;;;;;;7.43;5.03;;;;;;;21.05;60.57;101437.78;5035295;28;20279;-59
2021/07/03 08:46:38;;;;;;;6.35;4.90;;;;;;;21.06;60.79;101442.09;5034844;28;20430;-60
2021/07/03 08:49:04;;;;;;;9.57;5.30;;;;;;;21.06;60.80;101431.50;5034929;28;20136;-61
2021/07/03 08:51:29;;;;;;;6.68;4.47;;;;;;;21.07;60.79;101434.03;5034891;28;20120;-60
2021/07/03 08:53:54;;;;;;;8.38;4.60;;;;;;;21.08;60.86;101434.84;5034796;28;20108;-59
2021/07/03 08:56:20;;;;;;;6.53;4.70;;;;;;;21.04;60.85;101420.19;5033834;28;20021;-60
2021/07/03 08:58:45;;;;;;;7.28;4.75;;;;;;;21.09;60.55;101431.25;5034815;28;20499;-58
2021/07/03 09:01:13;;;;;;;7.30;4.72;;;;;;;21.07;60.48;101434.03;5034722;28;20446;-60
2021/07/03 09:03:51;;;;;;;7.72;4.72;;;;;;;21.09;60.51;101433.91;5033968;28;20113;-59
2021/07/03 09:06:16;;;;;;;6.45;4.70;;;;;;;21.11;60.58;101430.16;5034631;28;20060;-60
2021/07/03 09:08:55;;;;;;;7.45;4.63;;;;;;;21.12;60.57;101433.63;5034017;28;20045;-60
2021/07/03 09:11:20;;;;;;;7.50;4.53;;;;;;;21.11;60.65;101430.16;5033430;28;20076;-59
2021/07/03 09:13:57;;;;;;;7.07;4.83;;;;;;;21.14;60.47;101431.69;5034491;28;20021;-59
2021/07/03 09:16:30;;;;;;;9.63;5.22;;;;;;;21.15;60.62;101433.38;5032938;28;20773;-59
2021/07/03 09:18:56;;;;;;;6.50;4.32;;;;;;;21.15;60.29;101423.59;5034648;28;20018;-59
2021/07/03 09:21:21;;;;;;;6.93;4.60;;;;;;;21.17;60.32;101432.28;5034025;28;20101;-59
2021/07/03 09:23:46;;;;;;;6.47;4.60;;;;;;;21.18;60.32;101438.41;5033687;28;20025;-61
2021/07/03 09:26:12;;;;;;;9.47;4.40;;;;;;;21.18;60.20;101430.47;5034744;28;20094;-60
2021/07/03 09:28:40;;;;;;;7.38;4.40;;;;;;;21.19;60.28;101433.00;5034036;28;20337;-59
2021/07/03 09:31:10;;;;;;;6.38;4.55;;;;;;;21.18;60.17;101428.66;5033652;28;20057;-59
2021/07/03 09:33:43;;;;;;;8.63;4.78;;;;;;;21.19;60.08;101429.50;5033529;28;20046;-59
2021/07/03 09:36:12;;;;;;;7.05;4.53;;;;;;;21.18;60.18;101435.78;5034254;28;20049;-59
2021/07/03 09:38:49;;;;;;;7.35;4.50;;;;;;;21.19;60.43;101430.34;5033337;28;20420;-61
2021/07/03 09:41:17;;;;;;;6.32;4.15;;;;;;;21.19;60.00;101427.69;5034035;28;20485;-61
2021/07/03 09:43:54;;;;;;;7.00;4.80;;;;;;;21.20;60.23;101432.03;5033394;28;20079;-59
2021/07/03 09:46:23;;;;;;;6.25;4.63;;;;;;;21.20;60.11;101432.03;5033613;28;20100;-59
2021/07/03 09:48:51;;;;;;;8.75;4.07;;;;;;;21.20;60.01;101429.38;5033918;28;20033;-58
2021/07/03 09:51:17;;;;;;;6.45;4.15;;;;;;;21.26;59.92;101440.41;5032922;28;20025;-60
2021/07/03 09:53:42;;;;;;;6.13;4.35;;;;;;;21.18;59.82;101420.69;5033894;28;20484;-60
2021/07/03 09:56:08;;;;;;;7.93;5.07;;;;;;;21.24;59.88;101431.75;5033821;28;20037;-59
2021/07/03 09:58:34;;;;;;;6.90;4.55;;;;;;;21.23;59.93;101438.03;5032721;28;20022;-58
2021/07/03 10:00:59;;;;;;;7.50;4.63;;;;;;;21.19;59.89;101433.00;5033572;28;20381;-58
2021/07/03 10:03:27;;;;;;;5.90;4.13;;;;;;;21.20;59.75;101433.81;5033413;28;20022;-59
2021/07/03 10:05:55;;;;;;;6.82;4.78;;;;;;;21.18;59.89;101435.78;5032979;28;20021;-57
2021/07/03 10:08:26;;;;;;;7.55;4.60;;;;;;;21.16;60.12;101435.06;5033385;28;20384;-59
2021/07/03 10:10:57;;;;;;;7.53;4.72;;;;;;;21.15;59.97;101438.69;5033761;28;20094;-59
2021/07/03 10:13:25;;;;;;;8.93;5.28;;;;;;;21.15;60.34;101434.22;5032481;28;20454;-59
2021/07/03 10:16:02;;;;;;;8.90;4.10;;;;;;;21.15;60.18;101428.06;5033403;28;20124;-59
2021/07/03 10:18:47;;;;;;;6.80;3.78;;;;;;;21.17;60.37;101434.06;5033209;28;20029;-60
2021/07/03 10:21:17;;;;;;;5.93;3.95;;;;;;;21.17;60.41;101436.72;5031983;28;20033;-59
2021/07/03 10:23:44;;;;;;;5.93;4.13;;;;;;;21.18;60.54;101433.13;5033367;28;20522;-60
2021/07/03 10:26:11;;;;;;;6.25;3.88;;;;;;;21.19;60.50;101430.34;5031952;28;20022;-62
2021/07/03 10:28:39;;;;;;;7.63;4.28;;;;;;;21.21;60.37;101432.84;5032394;28;20021;-60
2021/07/03 10:31:09;;;;;;;5.85;4.05;;;;;;;21.22;60.74;101431.91;5031876;28;20091;-60
2021/07/03 10:33:49;;;;;;;6.65;4.28;;;;;;;21.22;60.65;101431.03;5031774;28;20156;-61
2021/07/03 10:36:29;;;;;;;6.38;4.00;;;;;;;21.24;60.70;101426.44;5032699;28;20106;-59
2021/07/03 10:38:57;;;;;;;6.97;4.05;;;;;;;21.23;60.77;101430.91;5033017;28;20383;-59
2021/07/03 10:41:30;;;;;;;6.18;4.10;;;;;;;21.22;60.73;101423.94;5032312;28;20032;-59
2021/07/03 10:44:11;;;;;;;7.15;3.80;;;;;;;21.20;60.70;101420.56;5033281;28;20040;-60
2021/07/03 10:46:42;;;;;;;6.35;4.22;;;;;;;21.21;60.76;101422.25;5032655;28;20037;-60
2021/07/03 10:49:07;;;;;;;6.32;4.47;;;;;;;21.20;60.90;101423.22;5032033;28;20021;-59
2021/07/03 10:51:41;;;;;;;6.03;4.15;;;;;;;21.20;61.08;101421.44;5032333;28;20113;-60
2021/07/03 10:54:14;;;;;;;;;;;;;;;21.19;61.44;101422.38;5032653;28;20372;-59
2021/07/03 10:56:51;;;;;;;7.05;4.60;;;;;;;21.18;61.76;101412.75;5032789;28;19921;-59
2021/07/03 10:59:22;;;;;;;7.38;4.07;;;;;;;21.22;61.65;101415.13;5032252;28;20022;-59
2021/07/03 11:01:48;;;;;;;6.95;4.53;;;;;;;21.23;61.53;101401.75;5031674;28;20105;-62
2021/07/03 11:04:19;;;;;;;7.33;4.10;;;;;;;21.23;61.64;101400.91;5032884;28;20443;-58
2021/07/03 11:06:49;;;;;;;6.30;4.53;;;;;;;21.27;61.59;101397.00;5032875;28;20289;-60
2021/07/03 11:09:31;;;;;;;7.43;4.40;;;;;;;21.28;61.49;101396.88;5031683;28;20037;-58
2021/07/03 11:12:09;;;;;;;7.30;4.38;;;;;;;21.29;61.34;101390.63;5032638;28;20045;-59
2021/07/03 11:14:39;;;;;;;9.73;4.50;;;;;;;21.33;61.19;101391.19;5032274;28;20037;-58
2021/07/03 11:17:04;;;;;;;5.90;3.97;;;;;;;21.34;61.00;101385.75;5030365;28;20033;-59
2021/07/03 11:19:30;;;;;;;5.80;3.97;;;;;;;21.36;61.11;101390.94;5032160;28;20048;-60
2021/07/03 11:22:07;;;;;;;7.18;4.15;;;;;;;21.38;61.06;101381.06;5032375;28;20068;-59